Time;durP1;ratioP1;P1;durP2;ratioP2;P2;SDS_P1;SDS_P2;PMS_P1;PMS_P2;Temp;Humidity;BMP_temperature;BMP_pressure;BME280_temperature;BME280_humidity;BME280_pressure;Samples;Min_cycle;Max_cycle;Signal;HPM_P1;HPM_P2
2022/12/05 00:00:32;;;;;;;43.25;19.42;;;;;;;7.01;65.91;101985.47;5035884;28;20033;-42
2022/12/05 00:02:57;;;;;;;43.00;19.67;;;;;;;7.00;66.30;101988.88;5035243;28;20033;-41
2022/12/05 00:05:23;;;;;;;40.17;19.90;;;;;;;7.09;66.02;101983.19;5034813;28;20025;-42
2022/12/05 00:07:48;;;;;;;44.45;20.02;;;;;;;7.00;66.54;101986.28;5034750;28;20115;-43
2022/12/05 00:10:14;;;;;;;41.60;18.48;;;;;;;7.23;65.67;101980.41;5034382;28;20114;-42
2022/12/05 00:12:39;;;;;;;38.15;18.52;;;;;;;7.10;65.97;101982.38;5034411;28;20033;-43
2022/12/05 00:15:05;;;;;;;38.65;18.25;;;;;;;6.90;66.04;101976.28;5034656;28;20026;-42
2022/12/05 00:17:31;;;;;;;45.17;19.30;;;;;;;7.01;66.65;101976.78;5034849;28;20021;-42
2022/12/05 00:19:57;;;;;;;39.88;18.35;;;;;;;7.20;65.62;101974.19;5034459;28;20025;-43
2022/12/05 00:22:22;;;;;;;41.53;18.73;;;;;;;7.16;65.93;101977.47;5034517;28;20072;-43
2022/12/05 00:24:47;;;;;;;40.60;19.13;;;;;;;7.15;66.02;101973.97;5034638;28;20057;-42
2022/12/05 00:27:13;;;;;;;38.70;18.20;;;;;;;7.08;65.94;101984.00;5033754;28;20108;-42
2022/12/05 00:29:38;;;;;;;40.90;18.58;;;;;;;7.20;65.71;101979.34;5033753;28;20025;-44
2022/12/05 00:32:04;;;;;;;39.22;17.92;;;;;;;7.11;66.15;101979.84;5034369;28;20033;-43
2022/12/05 00:34:29;;;;;;;39.72;18.20;;;;;;;7.20;65.78;101977.66;5034101;28;20053;-46
2022/12/05 00:36:54;;;;;;;38.67;18.00;;;;;;;7.29;65.39;101972.91;5033937;28;20029;-41
2022/12/05 00:39:20;;;;;;;37.88;17.75;;;;;;;7.26;65.57;101979.63;5032064;28;20033;-46
2022/12/05 00:41:45;;;;;;;37.42;18.08;;;;;;;6.97;66.23;101980.94;5033030;28;20353;-45
2022/12/05 00:44:12;;;;;;;36.63;16.98;;;;;;;7.05;65.63;101981.28;5032693;28;20059;-40
2022/12/05 00:46:37;;;;;;;38.78;17.48;;;;;;;7.31;65.28;101983.34;5033061;28;20526;-42
2022/12/05 00:49:04;;;;;;;38.10;17.73;;;;;;;7.22;65.39;101985.50;5033694;28;20121;-43
2022/12/05 00:51:33;;;;;;;39.03;17.27;;;;;;;7.18;65.41;101979.31;5034375;28;20081;-43
2022/12/05 00:54:00;;;;;;;35.00;17.27;;;;;;;7.25;65.71;101976.19;5034559;28;20045;-42
2022/12/05 00:56:28;;;;;;;38.28;17.15;;;;;;;7.17;65.60;101984.44;5034180;28;20414;-42
2022/12/05 00:58:55;;;;;;;35.00;16.23;;;;;;;7.12;66.17;101978.16;5034338;28;20021;-42
2022/12/05 01:01:23;;;;;;;40.55;17.40;;;;;;;7.40;65.42;101983.72;5034073;28;20397;-43
2022/12/05 01:03:53;;;;;;;35.25;15.98;;;;;;;7.33;65.81;101987.75;5034490;28;20032;-44
2022/12/05 01:06:19;;;;;;;39.60;17.17;;;;;;;7.58;65.06;101988.81;5034007;28;20018;-42
2022/12/05 01:08:44;;;;;;;33.80;16.23;;;;;;;7.36;65.49;101984.44;5034124;28;20025;-43
2022/12/05 01:11:12;;;;;;;36.25;16.27;;;;;;;7.26;65.65;101985.72;5034128;28;20040;-43
2022/12/05 01:13:38;;;;;;;34.63;16.90;;;;;;;7.16;66.15;101988.72;5034032;28;20028;-43
2022/12/05 01:16:04;;;;;;;34.70;16.17;;;;;;;7.37;65.55;101978.44;5033195;28;20021;-42
2022/12/05 01:18:29;;;;;;;35.00;16.27;;;;;;;7.20;66.39;101994.91;5034052;28;20075;-41
2022/12/05 01:20:54;;;;;;;36.13;17.65;;;;;;;7.21;65.90;101983.72;5032581;28;20127;-43
2022/12/05 01:23:20;;;;;;;36.60;16.50;;;;;;;6.80;67.56;101980.16;5032101;28;20025;-45
2022/12/05 01:25:49;;;;;;;35.03;16.25;;;;;;;7.08;66.96;101981.41;5032036;28;20457;-46
2022/12/05 01:28:15;;;;;;;32.90;16.15;;;;;;;7.28;66.42;101973.72;5031807;28;20084;-44
2022/12/05 01:30:43;;;;;;;35.45;15.73;;;;;;;7.41;66.08;101980.31;5031464;28;20454;-42
2022/12/05 01:33:09;;;;;;;33.67;15.73;;;;;;;7.45;66.05;101976.13;5032050;28;20055;-44
2022/12/05 01:35:37;;;;;;;34.17;15.95;;;;;;;7.55;65.79;101980.94;5031256;28;20033;-42
2022/12/05 01:38:03;;;;;;;36.53;16.70;;;;;;;7.38;66.36;101976.72;5031591;28;20517;-43
2022/12/05 01:40:28;;;;;;;35.60;16.15;;;;;;;7.46;66.56;101978.81;5031346;28;20022;-43
2022/12/05 01:42:54;;;;;;;33.70;15.63;;;;;;;7.54;66.43;101985.22;5031657;28;20032;-42
2022/12/05 01:45:32;;;;;;;34.00;16.05;;;;;;;7.62;65.98;101985.56;5031140;28;20060;-42
2022/12/05 01:48:02;;;;;;;35.13;16.42;;;;;;;7.37;66.96;101988.81;5031308;28;20029;-43
2022/12/05 01:50:28;;;;;;;34.15;16.33;;;;;;;7.13;67.61;101992.91;5031743;28;20029;-44
2022/12/05 01:52:53;;;;;;;37.13;16.30;;;;;;;7.16;67.54;101987.84;5031396;28;20021;-47
2022/12/05 01:55:19;;;;;;;36.83;15.98;;;;;;;7.33;67.44;101990.34;5031451;28;20091;-42
2022/12/05 01:57:47;;;;;;;36.00;16.02;;;;;;;7.60;66.31;101989.78;5031823;28;20339;-41
2022/12/05 02:00:16;;;;;;;33.90;16.17;;;;;;;7.17;67.49;101987.03;5031108;28;20021;-43
2022/12/05 02:02:47;;;;;;;33.03;15.55;;;;;;;7.47;66.99;101985.78;5032269;28;20032;-42
2022/12/05 02:05:18;;;;;;;34.28;15.60;;;;;;;7.50;66.98;101991.09;5032241;28;20021;-42
2022/12/05 02:07:45;;;;;;;35.97;16.90;;;;;;;7.34;67.05;101991.25;5031954;28;20091;-42
2022/12/05 02:10:11;;;;;;;33.40;15.65;;;;;;;7.34;67.48;101988.66;5032386;28;20057;-41
2022/12/05 02:12:37;;;;;;;38.97;16.60;;;;;;;7.43;67.22;101988.19;5033125;28;20028;-43
2022/12/05 02:15:21;;;;;;;32.75;15.40;;;;;;;7.51;67.37;101995.47;5031684;28;20064;-43
2022/12/05 02:18:17;;;;;;;33.72;16.33;;;;;;;7.80;66.39;101993.25;5032821;28;20030;-45
2022/12/05 02:21:03;;;;;;;35.50;15.70;;;;;;;7.42;67.95;101991.59;5031686;28;20029;-41
2022/12/05 02:23:35;;;;;;;34.50;16.20;;;;;;;7.19;68.54;101993.19;5031018;28;20021;-43
2022/12/05 02:26:27;;;;;;;36.08;16.25;;;;;;;7.29;68.33;101992.75;5030936;28;20385;-43
2022/12/05 02:29:17;;;;;;;30.88;15.27;;;;;;;7.48;67.73;101989.25;5028838;28;20033;-43
2022/12/05 02:32:04;;;;;;;38.42;16.05;;;;;;;7.10;68.81;101985.84;5030695;28;20037;-43
2022/12/05 02:34:35;;;;;;;36.80;16.38;;;;;;;7.36;68.46;101987.03;5031089;28;20390;-42
2022/12/05 02:37:13;;;;;;;37.85;15.98;;;;;;;7.40;68.00;101985.44;5031089;28;20040;-41
2022/12/05 02:39:54;;;;;;;36.58;16.27;;;;;;;7.04;69.34;101983.00;5031000;28;20029;-46
2022/12/05 02:42:35;;;;;;;36.60;16.08;;;;;;;7.41;68.90;101987.22;5030828;28;20103;-42
2022/12/05 02:45:06;;;;;;;36.55;15.75;;;;;;;7.43;68.30;101986.47;5032390;28;20028;-42
2022/12/05 02:47:35;;;;;;;37.90;16.23;;;;;;;7.60;68.40;101998.47;5032499;28;20363;-43
2022/12/05 02:50:01;;;;;;;34.97;16.27;;;;;;;7.54;68.39;101990.41;5032394;28;20478;-43
2022/12/05 02:52:30;;;;;;;37.60;16.60;;;;;;;7.34;69.32;101997.31;5032231;28;20026;-47
2022/12/05 02:54:56;;;;;;;37.75;17.15;;;;;;;7.39;69.41;101992.31;5033306;28;20064;-43
2022/12/05 02:57:23;;;;;;;34.85;15.82;;;;;;;7.68;68.46;101993.63;5033320;28;20028;-42
2022/12/05 02:59:49;;;;;;;36.30;16.20;;;;;;;7.82;67.88;102002.84;5032916;28;20025;-42
2022/12/05 03:02:40;;;;;;;34.92;16.13;;;;;;;7.62;68.23;102004.59;5032080;28;20022;-46
2022/12/05 03:05:21;;;;;;;35.38;15.98;;;;;;;7.68;68.49;102004.84;5027957;28;20052;-44
2022/12/05 03:07:50;;;;;;;35.53;16.45;;;;;;;7.92;67.46;102006.75;5030294;28;20097;-44
2022/12/05 03:10:20;;;;;;;35.67;16.33;;;;;;;7.25;69.74;102002.13;5030068;28;20087;-44
2022/12/05 03:12:54;;;;;;;37.58;16.23;;;;;;;7.07;71.07;102003.00;5030172;28;20036;-49
2022/12/05 03:15:42;;;;;;;35.17;16.25;;;;;;;7.38;69.97;101997.47;5060904;23;20060;-42
2022/12/05 03:18:22;;;;;;;34.17;15.70;;;;;;;7.53;69.34;101996.44;5053481;28;20022;-43
2022/12/05 03:20:58;;;;;;;35.22;16.38;;;;;;;7.68;69.14;101999.66;5053435;28;20088;-43
2022/12/05 03:23:29;;;;;;;32.80;15.63;;;;;;;7.78;68.56;102000.97;5051372;28;20028;-43
2022/12/05 03:26:35;;;;;;;37.53;16.45;;;;;;;7.48;69.73;102002.22;5050869;28;20017;-47
2022/12/05 03:29:21;;;;;;;34.15;15.43;;;;;;;7.28;70.63;102002.25;5053478;28;20028;-43
2022/12/05 03:32:02;;;;;;;38.28;16.13;;;;;;;7.55;69.67;101999.97;5053391;28;20436;-43
2022/12/05 03:34:36;;;;;;;35.25;16.27;;;;;;;7.38;70.32;102007.84;5053282;28;20033;-42
2022/12/05 03:37:08;;;;;;;35.47;15.75;;;;;;;7.30;70.12;102000.63;5054045;28;20032;-41
2022/12/05 03:39:38;;;;;;;35.10;15.65;;;;;;;7.59;69.56;102009.66;5053940;28;20033;-45
2022/12/05 03:42:19;;;;;;;35.13;15.35;;;;;;;7.65;69.66;102015.13;5052830;28;20086;-45
2022/12/05 03:44:47;;;;;;;34.92;15.88;;;;;;;7.69;69.48;102014.41;5053071;28;20405;-43
2022/12/05 03:47:15;;;;;;;35.90;16.23;;;;;;;7.40;69.94;102009.69;5052910;28;20028;-45
2022/12/05 03:49:46;;;;;;;36.90;16.13;;;;;;;7.63;69.92;102014.16;5053024;28;20052;-44
2022/12/05 03:52:19;;;;;;;35.13;15.88;;;;;;;7.33;70.18;102016.28;5052778;28;20027;-43
2022/12/05 03:54:50;;;;;;;34.92;15.75;;;;;;;7.67;69.88;102017.78;5052725;28;20420;-46
2022/12/05 03:57:21;;;;;;;31.98;14.98;;;;;;;7.63;69.58;102016.75;5053182;28;20020;-43
2022/12/05 03:59:54;;;;;;;34.25;14.68;;;;;;;7.95;68.80;102015.53;5052759;28;20025;-48
2022/12/05 04:02:46;;;;;;;34.22;15.15;;;;;;;7.67;69.56;102016.09;5052726;28;20033;-43
2022/12/05 04:05:35;;;;;;;29.25;14.68;;;;;;;7.92;68.67;102018.03;5053106;28;20025;-45
2022/12/05 04:08:05;;;;;;;31.85;14.35;;;;;;;7.58;69.65;102015.66;5052274;28;20104;-47
2022/12/05 04:10:47;;;;;;;32.53;14.35;;;;;;;7.83;69.59;102019.31;5052390;28;20025;-45
2022/12/05 04:13:34;;;;;;;33.17;14.45;;;;;;;7.89;69.15;102024.78;5053295;28;20052;-47
2022/12/05 04:19:06;;;;;;;32.58;14.10;;;;;;;7.66;69.64;102024.69;5052409;28;20044;-43
2022/12/05 04:21:38;;;;;;;31.45;14.13;;;;;;;7.89;69.68;102019.56;5050561;28;20543;-42
2022/12/05 04:27:20;;;;;;;30.20;13.48;;;;;;;7.78;68.94;102021.72;5052285;28;20499;-46
2022/12/05 04:29:52;;;;;;;30.90;14.52;;;;;;;7.94;69.29;102018.94;5052152;28;20140;-46
2022/12/05 04:32:19;;;;;;;33.80;14.18;;;;;;;7.83;69.56;102017.63;5051984;28;20053;-43
2022/12/05 04:34:53;;;;;;;32.20;14.65;;;;;;;7.64;69.63;102018.53;5052113;28;20029;-43
2022/12/05 04:37:22;;;;;;;30.23;13.63;;;;;;;7.77;69.98;102019.06;5051122;28;20025;-44
2022/12/05 04:40:00;;;;;;;32.38;14.05;;;;;;;7.68;70.17;102016.97;5051919;28;20044;-42
2022/12/05 04:42:29;;;;;;;28.65;13.88;;;;;;;7.86;69.81;102012.56;5051676;28;20025;-46
2022/12/05 04:45:02;;;;;;;27.27;13.48;;;;;;;8.06;69.20;102016.88;5052232;28;20025;-42
2022/12/05 04:47:34;;;;;;;29.30;13.73;;;;;;;7.98;69.24;102015.69;5052342;28;20389;-47
2022/12/05 04:50:01;;;;;;;30.80;14.23;;;;;;;8.08;69.31;102012.63;5051669;28;20099;-44
2022/12/05 04:52:28;;;;;;;29.10;13.35;;;;;;;7.93;69.21;102014.56;5051658;28;20103;-44
2022/12/05 04:55:19;;;;;;;28.42;13.50;;;;;;;7.99;69.37;102009.63;5051797;28;20025;-41
2022/12/05 04:58:09;;;;;;;28.55;13.43;;;;;;;8.11;68.83;102017.94;5050400;28;20424;-44
2022/12/05 05:00:43;;;;;;;28.42;13.20;;;;;;;7.77;69.88;102011.28;5051299;28;20048;-45
2022/12/05 05:03:23;;;;;;;28.90;13.27;;;;;;;8.04;69.68;102022.84;5052074;28;20021;-45
2022/12/05 05:05:52;;;;;;;27.58;13.15;;;;;;;8.01;69.29;102009.72;5052674;28;20078;-43
2022/12/05 05:08:22;;;;;;;29.63;14.07;;;;;;;8.23;69.09;102017.59;5052148;28;20067;-43
2022/12/05 05:11:02;;;;;;;29.00;13.80;;;;;;;8.31;68.29;102013.59;5052174;28;20036;-43
2022/12/05 05:13:27;;;;;;;28.35;13.50;;;;;;;8.23;68.55;102011.50;5053646;28;20036;-41
2022/12/05 05:15:52;;;;;;;27.27;13.20;;;;;;;8.06;69.82;102018.56;5053711;28;20020;-43
2022/12/05 05:18:18;;;;;;;30.88;13.80;;;;;;;8.05;69.31;102022.03;5054918;28;20379;-42
2022/12/05 05:20:43;;;;;;;29.02;14.05;;;;;;;8.31;68.75;102015.31;5052449;28;20107;-46
2022/12/05 05:23:08;;;;;;;28.23;14.13;;;;;;;7.73;70.38;102016.34;5051232;28;20035;-48
2022/12/05 05:25:34;;;;;;;30.15;13.80;;;;;;;8.24;69.16;102015.84;5051308;28;20108;-46
2022/12/05 05:27:59;;;;;;;29.13;13.57;;;;;;;8.32;68.91;102012.78;5051401;28;20505;-42
2022/12/05 05:30:24;;;;;;;27.58;13.80;;;;;;;8.32;68.97;102019.69;5051213;28;20276;-41
2022/12/05 05:32:50;;;;;;;27.65;13.73;;;;;;;8.02;70.35;102022.75;5051234;28;20612;-44
2022/12/05 05:35:16;;;;;;;33.55;14.50;;;;;;;7.97;70.48;102031.19;5051011;28;20029;-42
2022/12/05 05:37:41;;;;;;;30.00;14.45;;;;;;;8.19;69.54;102031.25;5050846;28;20055;-45
2022/12/05 05:40:09;;;;;;;30.33;14.10;;;;;;;7.92;70.46;102027.50;5050940;28;20456;-42
2022/12/05 05:42:34;;;;;;;32.10;14.70;;;;;;;8.44;68.92;102023.66;5051232;28;20441;-43
2022/12/05 05:45:00;;;;;;;34.88;15.05;;;;;;;8.10;69.95;102033.47;5051139;28;20067;-43
2022/12/05 05:47:25;;;;;;;29.55;14.77;;;;;;;8.46;68.95;102029.81;5051241;28;20104;-46
2022/12/05 05:49:50;;;;;;;35.22;14.85;;;;;;;8.37;69.53;102033.75;5050182;28;20025;-43
2022/12/05 05:52:16;;;;;;;31.63;15.60;;;;;;;8.58;68.92;102032.03;5050833;28;20047;-41
2022/12/05 05:54:41;;;;;;;31.20;14.80;;;;;;;8.11;70.11;102036.13;5050887;28;20108;-43
2022/12/05 05:57:06;;;;;;;32.67;15.23;;;;;;;8.23;69.77;102042.69;5051435;28;20021;-44
2022/12/05 05:59:32;;;;;;;31.33;14.65;;;;;;;8.43;69.25;102040.06;5049474;28;20029;-43
2022/12/05 06:01:57;;;;;;;30.63;14.52;;;;;;;8.55;69.04;102043.16;5050531;28;20033;-47
2022/12/05 06:04:22;;;;;;;33.92;15.05;;;;;;;8.59;68.54;102032.91;5050791;28;20013;-43
2022/12/05 06:06:48;;;;;;;34.90;15.10;;;;;;;8.23;69.97;102040.06;5050567;28;20031;-44
2022/12/05 06:09:13;;;;;;;33.97;14.95;;;;;;;8.25;70.45;102033.22;5050428;28;20017;-46
2022/12/05 06:11:38;;;;;;;33.05;15.20;;;;;;;8.42;69.78;102040.00;5050281;28;20580;-43
2022/12/05 06:14:03;;;;;;;35.35;15.60;;;;;;;8.41;69.98;102035.66;5050549;28;20075;-42
2022/12/05 06:16:30;;;;;;;34.13;15.43;;;;;;;8.31;70.14;102031.78;5050343;28;20027;-43
2022/12/05 06:18:57;;;;;;;35.33;15.48;;;;;;;8.18;70.54;102047.66;5050205;28;20436;-42
2022/12/05 06:21:23;;;;;;;35.55;14.98;;;;;;;8.57;69.11;102034.56;5050040;28;20054;-47
2022/12/05 06:23:48;;;;;;;33.00;15.02;;;;;;;8.77;68.75;102042.31;5050366;28;20500;-42
2022/12/05 06:26:17;;;;;;;33.55;14.98;;;;;;;8.70;68.89;102044.63;5050048;28;20016;-43
2022/12/05 06:28:43;;;;;;;33.75;15.25;;;;;;;8.46;69.60;102040.22;5050194;28;20450;-43
2022/12/05 06:31:17;;;;;;;30.70;14.63;;;;;;;8.34;69.85;102038.84;5049742;28;20112;-42
2022/12/05 06:33:43;;;;;;;29.50;14.20;;;;;;;8.70;68.60;102040.31;5050050;28;20504;-43
2022/12/05 06:36:11;;;;;;;29.27;13.98;;;;;;;8.71;68.69;102036.88;5049783;28;20383;-45
2022/12/05 06:38:37;;;;;;;28.23;14.40;;;;;;;8.73;68.83;102043.00;5049760;28;20063;-43
2022/12/05 06:41:08;;;;;;;31.02;14.45;;;;;;;8.66;69.06;102045.34;5049404;28;20028;-45
2022/12/05 06:43:34;;;;;;;28.52;13.73;;;;;;;8.79;68.68;102045.84;5050773;28;20033;-45
2022/12/05 06:46:03;;;;;;;28.23;13.80;;;;;;;8.56;69.08;102041.47;5051721;28;20025;-43
2022/12/05 06:48:28;;;;;;;27.30;14.20;;;;;;;8.77;68.67;102051.84;5051507;28;20082;-45
2022/12/05 06:50:53;;;;;;;28.98;13.63;;;;;;;8.49;68.94;102047.22;5050743;28;20024;-41
2022/12/05 06:53:19;;;;;;;29.38;13.80;;;;;;;8.74;68.92;102057.78;5050466;28;20031;-42
2022/12/05 06:55:54;;;;;;;26.45;13.70;;;;;;;8.86;68.19;102049.56;5050386;28;20028;-46
2022/12/05 06:58:19;;;;;;;27.40;13.27;;;;;;;8.60;69.00;102056.34;5051641;28;20430;-44
2022/12/05 07:03:29;;;;;;;27.92;13.45;;;;;;;8.74;68.44;102055.19;5061112;28;20548;-46
2022/12/05 07:05:54;;;;;;;25.65;13.25;;;;;;;8.98;67.99;102056.97;5060124;28;20021;-44
2022/12/05 07:08:19;;;;;;;25.63;12.75;;;;;;;8.93;68.36;102051.59;5057446;28;20078;-42
2022/12/05 07:10:50;;;;;;;22.77;12.35;;;;;;;8.57;69.24;102063.16;5059006;28;20021;-41
2022/12/05 07:13:15;;;;;;;23.90;12.63;;;;;;;8.72;69.22;102063.78;5060739;28;20025;-46
2022/12/05 07:15:40;;;;;;;22.80;12.15;;;;;;;9.16;67.70;102068.97;5059193;28;20028;-43
2022/12/05 07:18:06;;;;;;;22.90;12.20;;;;;;;9.04;67.96;102073.69;5056977;28;20032;-45
2022/12/05 07:20:31;;;;;;;23.45;12.00;;;;;;;8.87;68.34;102065.25;5055940;28;20035;-45
2022/12/05 07:22:56;;;;;;;22.85;12.40;;;;;;;9.11;67.85;102067.03;5056580;28;20036;-43
2022/12/05 07:25:22;;;;;;;22.67;12.30;;;;;;;9.18;67.96;102077.72;5056714;28;20017;-48
2022/12/05 07:27:47;;;;;;;22.58;11.80;;;;;;;9.01;68.47;102072.72;5056791;28;20024;-43
2022/12/05 07:30:12;;;;;;;23.70;12.45;;;;;;;9.06;67.92;102078.97;5056149;28;20060;-43
2022/12/05 07:32:38;;;;;;;24.58;12.35;;;;;;;9.02;68.26;102084.88;5056351;28;20032;-42
2022/12/05 07:35:03;;;;;;;22.58;12.10;;;;;;;9.03;68.35;102084.94;5056205;28;20032;-42
2022/12/05 07:37:28;;;;;;;23.65;12.10;;;;;;;9.19;68.03;102084.72;5056173;28;20128;-43
2022/12/05 07:39:54;;;;;;;22.27;12.23;;;;;;;9.18;67.72;102089.84;5056435;28;20021;-45
2022/12/05 07:42:19;;;;;;;22.58;11.68;;;;;;;9.14;67.87;102088.84;5056097;28;20534;-46
2022/12/05 07:44:44;;;;;;;20.90;11.57;;;;;;;8.91;68.60;102095.75;5056595;28;20025;-46
2022/12/05 07:47:10;;;;;;;20.48;10.82;;;;;;;9.01;68.01;102091.81;5059329;28;20017;-42
2022/12/05 07:49:35;;;;;;;23.40;11.27;;;;;;;8.94;67.77;102089.78;5058871;28;20417;-45
2022/12/05 07:52:01;;;;;;;19.77;10.77;;;;;;;9.15;67.83;102093.19;5055920;28;20029;-42
2022/12/05 07:54:26;;;;;;;18.40;10.20;;;;;;;9.31;67.40;102092.97;5055737;28;20027;-42
2022/12/05 07:56:51;;;;;;;17.48;9.98;;;;;;;9.23;67.73;102093.50;5056207;28;20024;-45
2022/12/05 07:59:16;;;;;;;16.88;9.60;;;;;;;9.22;68.33;102092.63;5056191;28;20396;-42
2022/12/05 08:01:42;;;;;;;16.48;9.75;;;;;;;9.20;67.50;102096.91;5055849;28;20032;-44
2022/12/05 08:04:07;;;;;;;16.23;9.55;;;;;;;9.15;67.86;102101.00;5055995;28;20064;-44
2022/12/05 08:06:33;;;;;;;15.77;8.98;;;;;;;9.18;67.87;102097.66;5056399;28;20025;-44
2022/12/05 08:08:58;;;;;;;17.17;9.20;;;;;;;9.19;68.36;102105.53;5056381;28;20037;-46
2022/12/05 08:11:26;;;;;;;14.43;8.80;;;;;;;9.11;67.83;102101.72;5054826;28;20036;-43
2022/12/05 08:13:53;;;;;;;15.40;8.95;;;;;;;8.83;69.44;102104.97;5053185;28;20137;-43
2022/12/05 08:16:22;;;;;;;14.98;8.85;;;;;;;8.89;69.39;102100.00;5052380;28;20057;-45
2022/12/05 08:18:48;;;;;;;15.02;8.48;;;;;;;8.95;68.70;102097.66;5053057;28;20017;-42
2022/12/05 08:21:16;;;;;;;14.38;8.68;;;;;;;9.25;67.80;102097.06;5053082;28;20488;-46
2022/12/05 08:23:42;;;;;;;13.98;8.30;;;;;;;9.16;67.79;102097.59;5053788;28;20060;-47
2022/12/05 08:26:09;;;;;;;13.75;8.43;;;;;;;9.15;67.93;102111.41;5053736;28;20055;-42
2022/12/05 08:28:36;;;;;;;15.73;8.73;;;;;;;9.19;67.77;102096.81;5052903;28;20037;-41
2022/12/05 08:31:10;;;;;;;17.55;8.82;;;;;;;9.27;67.84;102100.63;5051667;28;20032;-48
2022/12/05 08:33:35;;;;;;;12.60;8.40;;;;;;;9.34;67.60;102102.59;5052115;28;20025;-43
2022/12/05 08:36:02;;;;;;;12.45;8.20;;;;;;;9.34;67.84;102113.00;5051893;28;20121;-46
2022/12/05 08:38:27;;;;;;;12.00;7.85;;;;;;;8.90;68.16;102114.75;5050864;28;20027;-46
2022/12/05 08:40:53;;;;;;;15.90;8.35;;;;;;;9.20;68.25;102122.03;5051833;28;20028;-43
2022/12/05 08:43:18;;;;;;;13.98;8.23;;;;;;;9.20;67.50;102122.91;5051951;28;20478;-47
2022/12/05 08:45:52;;;;;;;16.33;8.63;;;;;;;9.21;67.77;102129.00;5051802;28;20104;-44
2022/12/05 08:48:18;;;;;;;14.23;8.25;;;;;;;9.18;67.97;102123.66;5051988;28;20025;-44
2022/12/05 08:50:44;;;;;;;15.90;8.80;;;;;;;9.09;68.64;102131.13;5051627;28;20404;-48
2022/12/05 08:53:09;;;;;;;14.20;8.32;;;;;;;9.34;67.61;102119.09;5051714;28;20060;-43
2022/12/05 08:55:35;;;;;;;13.07;8.00;;;;;;;9.28;67.84;102126.69;5051664;28;20028;-50
2022/12/05 08:58:00;;;;;;;11.75;7.75;;;;;;;9.23;68.14;102135.13;5051840;28;20052;-45
2022/12/05 09:00:26;;;;;;;13.07;8.00;;;;;;;9.09;68.28;102134.59;5051343;28;20033;-43
2022/12/05 09:02:51;;;;;;;13.30;7.63;;;;;;;9.30;67.92;102129.34;5051715;28;20079;-45
2022/12/05 09:05:17;;;;;;;11.93;7.70;;;;;;;9.23;68.43;102140.34;5050362;28;20074;-45
2022/12/05 09:07:42;;;;;;;11.95;7.00;;;;;;;9.32;67.80;102131.19;5052039;28;20545;-44
2022/12/05 09:10:09;;;;;;;11.57;7.40;;;;;;;9.50;67.57;102144.03;5053039;28;20059;-44
2022/12/05 09:12:37;;;;;;;11.38;7.20;;;;;;;9.44;67.36;102135.97;5054164;28;20055;-42
2022/12/05 09:15:08;;;;;;;11.30;6.90;;;;;;;9.67;66.87;102129.91;5076514;22;20052;-42
2022/12/05 09:17:33;;;;;;;11.20;7.15;;;;;;;9.55;67.30;102137.25;5071879;28;20041;-45
2022/12/05 09:19:59;;;;;;;10.63;7.03;;;;;;;9.33;67.63;102139.88;5072268;28;20093;-40
2022/12/05 09:22:24;;;;;;;11.05;7.00;;;;;;;9.34;67.73;102144.25;5072730;28;20028;-43
2022/12/05 09:24:50;;;;;;;11.07;6.38;;;;;;;9.56;66.91;102146.84;5074897;28;20035;-40
2022/12/05 09:27:15;;;;;;;10.93;6.88;;;;;;;9.12;67.84;102145.13;5072835;28;20477;-41
2022/12/05 09:29:41;;;;;;;11.32;6.93;;;;;;;9.47;67.52;102149.09;5075053;28;20023;-42
2022/12/05 09:32:07;;;;;;;10.80;6.35;;;;;;;9.45;67.31;102149.88;5056364;28;20276;-42
2022/12/05 09:34:32;;;;;;;10.77;6.82;;;;;;;9.55;67.08;102152.00;5074185;28;20032;-43
2022/12/05 09:36:59;;;;;;;11.27;6.78;;;;;;;9.46;67.17;102149.03;5074498;28;20051;-43
2022/12/05 09:39:24;;;;;;;10.40;6.35;;;;;;;9.37;67.73;102160.00;5074284;28;20028;-40
2022/12/05 09:42:06;;;;;;;9.02;5.93;;;;;;;9.82;66.37;102159.97;5073460;28;20032;-44
2022/12/05 09:45:02;;;;;;;9.50;6.32;;;;;;;9.71;66.21;102162.13;5074196;28;20028;-42
2022/12/05 09:47:43;;;;;;;;;;;;;;;9.84;66.14;102166.09;5073143;28;20120;-44
2022/12/05 09:50:14;;;;;;;11.00;6.05;;;;;;;9.51;67.17;102171.81;5072279;28;19912;-41
2022/12/05 09:52:55;;;;;;;9.65;5.80;;;;;;;9.66;66.73;102164.59;5072030;28;20465;-41
2022/12/05 09:55:21;;;;;;;11.30;6.50;;;;;;;9.54;67.37;102169.31;5073933;28;20430;-43
2022/12/05 09:57:52;;;;;;;11.27;6.28;;;;;;;9.90;66.51;102168.91;5073209;28;20041;-42
2022/12/05 10:00:18;;;;;;;10.05;6.15;;;;;;;9.73;66.44;102170.91;5071002;28;20055;-40
2022/12/05 10:02:59;;;;;;;10.27;6.32;;;;;;;9.58;66.80;102171.19;5071049;28;20060;-42
2022/12/05 10:05:33;;;;;;;10.40;6.50;;;;;;;9.77;66.76;102172.78;5070711;28;20473;-42
2022/12/05 10:08:16;;;;;;;8.98;5.93;;;;;;;9.80;66.57;102164.22;5070671;28;20032;-38
2022/12/05 10:11:23;;;;;;;9.93;6.22;;;;;;;9.28;68.18;102168.31;5070804;28;20063;-42
2022/12/05 10:14:00;;;;;;;9.60;5.88;;;;;;;9.71;67.05;102168.25;5042437;28;20036;-43
2022/12/05 10:16:31;;;;;;;10.73;6.50;;;;;;;9.89;66.63;102167.13;5070747;28;20025;-43
2022/12/05 10:19:11;;;;;;;9.82;6.47;;;;;;;9.88;66.58;102170.59;5070720;28;20260;-42
2022/12/05 10:22:26;;;;;;;11.15;6.15;;;;;;;9.97;65.74;102173.53;5070337;28;20055;-40
2022/12/05 10:24:55;;;;;;;9.85;6.20;;;;;;;9.68;66.81;102172.47;5055274;28;20032;-41
2022/12/05 10:27:29;;;;;;;8.90;6.20;;;;;;;9.61;67.30;102167.84;5072883;28;20021;-41
2022/12/05 10:30:05;;;;;;;9.73;6.45;;;;;;;10.10;65.98;102175.75;5073652;28;20485;-39
2022/12/05 10:32:51;;;;;;;12.68;6.82;;;;;;;10.04;66.46;102179.03;5072386;28;20500;-40
2022/12/05 10:35:31;;;;;;;12.73;6.85;;;;;;;10.04;66.33;102172.91;5072737;28;20055;-43
2022/12/05 10:37:59;;;;;;;9.25;6.30;;;;;;;10.00;66.16;102171.03;5073417;28;20032;-42
2022/12/05 10:40:37;;;;;;;9.70;6.50;;;;;;;9.82;66.66;102168.63;5073658;28;20102;-41
2022/12/05 10:43:05;;;;;;;10.38;6.63;;;;;;;9.84;66.81;102173.91;5072169;28;20056;-41
2022/12/05 10:45:30;;;;;;;9.95;6.70;;;;;;;9.74;67.25;102170.09;5071532;28;20021;-42
2022/12/05 10:47:57;;;;;;;12.18;6.57;;;;;;;9.85;67.36;102170.47;5070552;28;20366;-44
2022/12/05 10:50:28;;;;;;;9.95;6.43;;;;;;;9.85;67.32;102170.47;5070230;28;20066;-43
2022/12/05 10:52:55;;;;;;;10.45;6.60;;;;;;;9.90;66.88;102167.19;5070643;28;20032;-41
2022/12/05 10:55:21;;;;;;;10.48;6.70;;;;;;;9.77;67.62;102167.56;5071568;28;20028;-42
2022/12/05 10:57:50;;;;;;;11.35;6.35;;;;;;;9.79;67.73;102165.94;5053721;28;20595;-42
2022/12/05 11:00:21;;;;;;;9.60;6.07;;;;;;;9.59;68.15;102159.97;5071500;28;20124;-44
2022/12/05 11:02:48;;;;;;;8.70;5.75;;;;;;;9.72;67.82;102166.53;5053809;28;20300;-40
2022/12/05 11:05:14;;;;;;;9.20;6.03;;;;;;;9.73;67.31;102163.97;5072701;28;20028;-40
2022/12/05 11:07:42;;;;;;;8.18;5.43;;;;;;;9.78;68.23;102165.03;5072259;28;20484;-43
2022/12/05 11:10:39;;;;;;;9.73;5.55;;;;;;;9.72;68.16;102161.31;5052843;28;20480;-43
2022/12/05 11:13:23;;;;;;;8.98;5.50;;;;;;;9.92;67.68;102160.34;5051104;28;20036;-41
2022/12/05 11:15:48;;;;;;;8.00;5.18;;;;;;;9.88;67.23;102161.03;5071114;28;20044;-42
2022/12/05 11:18:33;;;;;;;8.85;5.80;;;;;;;9.87;67.20;102161.91;5071115;28;20020;-39
2022/12/05 11:21:10;;;;;;;10.40;6.10;;;;;;;9.65;68.16;102155.00;5071204;28;20024;-48
2022/12/05 11:23:36;;;;;;;8.73;5.90;;;;;;;9.75;67.88;102162.34;5071592;28;20031;-41
2022/12/05 11:26:02;;;;;;;8.80;5.65;;;;;;;9.63;68.02;102161.00;5072154;28;20099;-40
2022/12/05 11:28:45;;;;;;;10.25;6.07;;;;;;;9.57;68.48;102161.66;5073579;28;20078;-42
2022/12/05 11:31:11;;;;;;;8.68;5.82;;;;;;;9.75;67.82;102162.34;5074246;28;20033;-43
2022/12/05 11:33:36;;;;;;;9.32;5.97;;;;;;;9.88;67.22;102165.38;5075225;28;20085;-41
2022/12/05 11:36:18;;;;;;;13.43;6.03;;;;;;;9.80;67.34;102159.91;5075132;28;20031;-40
2022/12/05 11:38:44;;;;;;;7.28;4.97;;;;;;;9.60;68.19;102153.94;5072553;28;20025;-41
2022/12/05 11:41:40;;;;;;;9.50;5.78;;;;;;;9.85;67.85;102155.72;5073007;28;20369;-42
2022/12/05 11:44:44;;;;;;;10.32;5.63;;;;;;;9.95;67.08;102163.03;5074992;28;20407;-41